Time;durP1;ratioP1;P1;durP2;ratioP2;P2;SDS_P1;SDS_P2;PMS_P1;PMS_P2;Temp;Humidity;BMP_temperature;BMP_pressure;BME280_temperature;BME280_humidity;BME280_pressure;Samples;Min_cycle;Max_cycle;Signal;HPM_P1;HPM_P2
2021/06/19 00:00:34;;;;;;;90.90;12.80;;;27.40;71.10;;;;;;5003226;28;20520;-60
2021/06/19 00:02:59;;;;;;;101.53;13.38;;;27.30;71.10;;;;;;4986446;28;20671;-60
2021/06/19 00:05:25;;;;;;;104.80;14.77;;;27.30;71.20;;;;;;5002851;28;20121;-60
2021/06/19 00:07:50;;;;;;;83.43;12.80;;;27.30;71.30;;;;;;5002992;28;20028;-60
2021/06/19 00:10:17;;;;;;;94.30;13.57;;;27.30;71.30;;;;;;5002041;28;20061;-59
2021/06/19 00:12:43;;;;;;;84.32;13.40;;;27.20;71.30;;;;;;5003169;28;20603;-59
2021/06/19 00:15:10;;;;;;;91.78;13.05;;;27.30;71.50;;;;;;5002438;28;20030;-62
2021/06/19 00:17:36;;;;;;;82.95;15.95;;;27.20;72.30;;;;;;4985957;28;20374;-60
2021/06/19 00:20:06;;;;;;;92.20;15.48;;;27.20;71.80;;;;;;5004322;28;20050;-61
2021/06/19 00:22:31;;;;;;;95.55;14.73;;;27.20;71.80;;;;;;5001061;28;20061;-60
2021/06/19 00:24:57;;;;;;;76.50;15.65;;;27.20;72.00;;;;;;5004155;28;20022;-60
2021/06/19 00:27:22;;;;;;;65.35;12.73;;;27.20;71.90;;;;;;5035482;28;20635;-60
2021/06/19 00:29:48;;;;;;;63.92;13.05;;;27.10;72.00;;;;;;5002717;28;20510;-60
2021/06/19 00:32:13;;;;;;;56.00;13.52;;;27.10;72.00;;;;;;5002906;28;20030;-61
2021/06/19 00:34:39;;;;;;;73.07;13.10;;;27.10;72.10;;;;;;5004550;28;20115;-60
2021/06/19 00:37:04;;;;;;;61.33;12.43;;;27.10;72.30;;;;;;5001692;28;20109;-60
2021/06/19 00:39:30;;;;;;;48.08;11.98;;;27.00;72.30;;;;;;5004151;28;20021;-60
2021/06/19 00:41:55;;;;;;;60.35;12.93;;;27.00;72.30;;;;;;5004176;28;20029;-60
2021/06/19 00:44:21;;;;;;;50.45;12.25;;;27.00;72.30;;;;;;5003337;28;20061;-61
2021/06/19 00:46:53;;;;;;;51.92;11.95;;;26.90;72.40;;;;;;5002610;28;20509;-60
2021/06/19 00:49:20;;;;;;;43.35;11.13;;;26.90;72.40;;;;;;4985535;28;20037;-61
2021/06/19 00:51:45;;;;;;;41.35;11.07;;;26.90;72.40;;;;;;5002382;28;20049;-61
2021/06/19 00:54:11;;;;;;;51.00;10.07;;;26.90;72.50;;;;;;5002568;28;20034;-60
2021/06/19 00:56:37;;;;;;;49.13;10.98;;;26.90;72.50;;;;;;5003222;28;20030;-61
2021/06/19 00:59:04;;;;;;;50.20;11.10;;;26.90;72.60;;;;;;5003811;28;20038;-60
2021/06/19 01:01:29;;;;;;;49.33;10.57;;;26.90;72.60;;;;;;5005098;28;20083;-60
2021/06/19 01:03:55;;;;;;;44.80;10.18;;;26.90;72.80;;;;;;5000462;28;20305;-59
2021/06/19 01:06:21;;;;;;;49.53;9.52;;;26.80;72.80;;;;;;5002649;28;20436;-61
2021/06/19 01:08:46;;;;;;;32.58;9.60;;;26.80;72.80;;;;;;5004433;28;20093;-60
2021/06/19 01:11:12;;;;;;;26.17;8.50;;;26.80;73.00;;;;;;5001583;28;20089;-61
2021/06/19 01:13:37;;;;;;;43.85;10.18;;;26.70;73.00;;;;;;4986567;28;20030;-61
2021/06/19 01:16:03;;;;;;;37.08;11.70;;;26.70;73.00;;;;;;5001960;28;20038;-61
2021/06/19 01:18:28;;;;;;;42.53;13.20;;;26.70;73.10;;;;;;5004711;28;20555;-60
2021/06/19 01:20:54;;;;;;;31.90;10.65;;;26.70;73.20;;;;;;5003513;28;20636;-60
2021/06/19 01:23:19;;;;;;;37.33;10.73;;;26.70;73.30;;;;;;5017444;28;20033;-60
2021/06/19 01:25:45;;;;;;;44.13;11.93;;;26.70;73.30;;;;;;5000373;28;20113;-61
2021/06/19 01:28:11;;;;;;;27.52;9.88;;;26.60;73.20;;;;;;5006899;28;20084;-59
2021/06/19 01:30:38;;;;;;;44.53;11.23;;;26.60;73.40;;;;;;5008249;28;20045;-58
2021/06/19 01:33:03;;;;;;;32.03;9.70;;;26.60;73.40;;;;;;5007276;28;21646;-58
2021/06/19 01:35:30;;;;;;;28.38;9.70;;;26.60;73.50;;;;;;5004984;28;20030;-58
2021/06/19 01:37:56;;;;;;;29.40;8.38;;;26.50;73.40;;;;;;5003610;28;20052;-59
2021/06/19 01:40:30;;;;;;;39.97;9.20;;;26.50;73.60;;;;;;5005826;28;20050;-58
2021/06/19 01:42:56;;;;;;;32.05;10.40;;;26.50;73.50;;;;;;5007368;28;20153;-59
2021/06/19 01:45:27;;;;;;;34.22;10.30;;;26.50;73.60;;;;;;5005224;28;20118;-60
2021/06/19 01:47:52;;;;;;;25.00;9.45;;;26.50;73.60;;;;;;5005911;28;20037;-61
2021/06/19 01:50:20;;;;;;;24.58;8.80;;;26.50;73.80;;;;;;4990685;28;20614;-60
2021/06/19 01:52:46;;;;;;;31.98;9.65;;;26.50;73.80;;;;;;5004421;28;20037;-59
2021/06/19 01:55:12;;;;;;;34.20;10.70;;;26.40;73.70;;;;;;5005467;28;20022;-59
2021/06/19 01:57:38;;;;;;;35.55;10.90;;;26.40;73.80;;;;;;5007400;28;20022;-60
2021/06/19 02:00:12;;;;;;;22.20;8.70;;;26.40;73.90;;;;;;5005893;28;20397;-60
2021/06/19 02:02:38;;;;;;;25.55;9.23;;;26.30;73.90;;;;;;5007592;28;20026;-59
2021/06/19 02:05:05;;;;;;;20.38;8.18;;;26.30;74.30;;;;;;4990103;28;20026;-58
2021/06/19 02:07:32;;;;;;;24.92;8.93;;;26.30;74.00;;;;;;4989810;28;20038;-60
2021/06/19 02:09:58;;;;;;;18.40;7.57;;;26.30;74.10;;;;;;5004481;28;20072;-59
2021/06/19 02:12:23;;;;;;;24.55;7.85;;;26.30;74.10;;;;;;5003679;28;20134;-60
2021/06/19 02:14:49;;;;;;;21.27;7.72;;;26.20;74.10;;;;;;5005584;28;20502;-59
2021/06/19 02:17:14;;;;;;;16.27;7.38;;;26.20;74.20;;;;;;5007078;28;20038;-60
2021/06/19 02:19:40;;;;;;;20.50;8.65;;;26.20;74.20;;;;;;5006000;28;20145;-60
2021/06/19 02:22:05;;;;;;;24.33;10.23;;;26.20;74.20;;;;;;5006264;28;20029;-59
2021/06/19 02:24:31;;;;;;;24.15;9.07;;;26.20;74.30;;;;;;5003621;28;20042;-60
2021/06/19 02:27:10;;;;;;;20.17;9.73;;;26.20;74.30;;;;;;5004167;28;20036;-60
2021/06/19 02:29:36;;;;;;;20.00;10.55;;;26.10;74.30;;;;;;4986141;28;20065;-59
2021/06/19 02:32:02;;;;;;;22.38;8.23;;;26.10;74.30;;;;;;5006617;28;20061;-58
2021/06/19 02:34:27;;;;;;;19.73;8.48;;;26.10;74.20;;;;;;5007245;28;20021;-60
2021/06/19 02:36:53;;;;;;;16.52;7.70;;;26.10;74.30;;;;;;5004544;28;20393;-58
2021/06/19 02:39:19;;;;;;;19.98;7.60;;;26.10;74.40;;;;;;4997812;28;20029;-59
2021/06/19 02:41:44;;;;;;;19.13;7.68;;;26.00;74.40;;;;;;4985270;28;20052;-58
2021/06/19 02:44:10;;;;;;;21.17;7.78;;;26.10;74.40;;;;;;5003099;28;20474;-60
2021/06/19 02:46:35;;;;;;;21.10;8.25;;;26.00;74.30;;;;;;5001552;28;20046;-59
2021/06/19 02:49:01;;;;;;;22.60;7.95;;;26.00;74.50;;;;;;5000251;28;20065;-59
2021/06/19 02:51:27;;;;;;;17.83;7.70;;;26.00;74.40;;;;;;5002072;28;20100;-58
2021/06/19 02:53:52;;;;;;;17.55;7.43;;;26.00;74.50;;;;;;4968904;28;20460;-60
2021/06/19 02:56:18;;;;;;;17.40;7.53;;;26.00;74.40;;;;;;4981849;28;20096;-59
2021/06/19 02:58:44;;;;;;;15.05;6.78;;;26.10;74.50;;;;;;4984643;28;20160;-58
2021/06/19 03:01:09;;;;;;;14.27;7.10;;;25.90;74.30;;;;;;5001243;28;20050;-59
2021/06/19 03:03:35;;;;;;;15.25;6.53;;;25.90;74.30;;;;;;5001166;28;20034;-58
2021/06/19 03:06:01;;;;;;;13.48;6.70;;;25.90;74.30;;;;;;5003007;28;20022;-60
2021/06/19 03:08:30;;;;;;;15.70;6.93;;;25.90;74.40;;;;;;5005701;28;20037;-59
2021/06/19 03:10:55;;;;;;;21.63;7.32;;;25.90;74.40;;;;;;5004915;28;20045;-59
2021/06/19 03:13:21;;;;;;;16.67;6.45;;;25.90;74.30;;;;;;5003122;28;20025;-60
2021/06/19 03:15:46;;;;;;;15.27;6.88;;;25.90;74.40;;;;;;5002735;28;20037;-60
2021/06/19 03:18:12;;;;;;;15.25;5.85;;;25.90;74.40;;;;;;5004649;28;20022;-58
2021/06/19 03:20:37;;;;;;;9.98;6.40;;;25.90;74.40;;;;;;4999973;28;79785;-58
2021/06/19 03:23:04;;;;;;;15.60;6.13;;;25.90;74.50;;;;;;5004231;28;20081;-58
2021/06/19 03:25:31;;;;;;;14.82;5.93;;;25.90;74.70;;;;;;5002987;28;20032;-59
2021/06/19 03:27:58;;;;;;;11.68;6.35;;;25.90;74.60;;;;;;5001808;28;20050;-58
2021/06/19 03:30:24;;;;;;;11.48;6.40;;;25.80;74.60;;;;;;5004511;28;20030;-59
2021/06/19 03:32:49;;;;;;;14.63;6.40;;;25.80;74.60;;;;;;5004645;28;20045;-60
2021/06/19 03:35:15;;;;;;;15.48;5.95;;;25.80;74.60;;;;;;5002060;28;20488;-60
2021/06/19 03:37:40;;;;;;;11.93;5.93;;;25.80;74.70;;;;;;5005542;28;20049;-59
2021/06/19 03:40:08;;;;;;;16.08;6.35;;;25.80;74.70;;;;;;5000902;28;20034;-59
2021/06/19 03:42:34;;;;;;;12.10;6.55;;;25.80;74.70;;;;;;5003879;28;20029;-58
2021/06/19 03:44:59;;;;;;;14.07;6.45;;;25.80;74.90;;;;;;5035916;28;20022;-60
2021/06/19 03:47:25;;;;;;;13.48;6.53;;;25.70;74.70;;;;;;5003606;28;20572;-61
2021/06/19 03:49:50;;;;;;;13.90;6.18;;;25.70;74.60;;;;;;5002232;28;20137;-59
2021/06/19 03:52:16;;;;;;;14.52;6.70;;;25.70;74.60;;;;;;5004374;28;20129;-59
2021/06/19 03:54:41;;;;;;;13.23;6.53;;;25.70;74.80;;;;;;5003062;28;20044;-59
2021/06/19 03:57:07;;;;;;;14.95;7.05;;;25.70;74.70;;;;;;5004388;28;20104;-59
2021/06/19 03:59:33;;;;;;;14.40;7.00;;;25.70;74.80;;;;;;4986341;28;20025;-60
2021/06/19 04:01:59;;;;;;;10.90;6.70;;;25.70;74.80;;;;;;5003946;28;20092;-59
2021/06/19 04:04:24;;;;;;;11.77;6.28;;;25.70;74.80;;;;;;4986041;28;20050;-58
2021/06/19 04:06:50;;;;;;;12.35;6.90;;;25.70;74.80;;;;;;5001994;28;20048;-58
2021/06/19 04:09:15;;;;;;;11.70;6.90;;;25.70;74.80;;;;;;5004599;28;20095;-58
2021/06/19 04:11:42;;;;;;;12.07;6.65;;;25.70;74.80;;;;;;5004318;28;20079;-60
2021/06/19 04:14:08;;;;;;;13.85;7.07;;;25.60;74.90;;;;;;5004238;28;20120;-60
2021/06/19 04:16:33;;;;;;;10.50;6.65;;;25.70;74.90;;;;;;5003101;28;20116;-59
2021/06/19 04:18:59;;;;;;;11.40;6.70;;;25.70;74.90;;;;;;5003947;28;20037;-58
2021/06/19 04:21:24;;;;;;;10.63;6.97;;;25.60;74.90;;;;;;5004293;28;20029;-60
2021/06/19 04:23:50;;;;;;;11.80;7.32;;;25.60;74.90;;;;;;5004744;28;20461;-59
2021/06/19 04:26:15;;;;;;;10.98;6.95;;;25.60;75.00;;;;;;5003938;28;20110;-59
2021/06/19 04:28:41;;;;;;;11.80;6.57;;;25.60;74.90;;;;;;5003515;28;20367;-58
2021/06/19 04:31:06;;;;;;;10.70;6.18;;;25.60;75.70;;;;;;5004404;28;20065;-59
2021/06/19 04:33:32;;;;;;;13.25;6.65;;;25.60;75.10;;;;;;5003972;28;20129;-59
2021/06/19 04:35:57;;;;;;;15.35;6.75;;;25.60;75.00;;;;;;5005168;28;20025;-59
2021/06/19 04:38:23;;;;;;;10.88;6.82;;;25.50;74.90;;;;;;5004684;28;20029;-59
2021/06/19 04:43:14;;;;;;;14.27;6.32;;;25.50;74.90;;;;;;5003436;28;20121;-60
2021/06/19 04:45:40;;;;;;;9.02;6.50;;;25.50;74.80;;;;;;5005355;28;20053;-61
2021/06/19 04:48:06;;;;;;;15.95;6.53;;;25.50;74.80;;;;;;5004740;28;20030;-60
2021/06/19 04:50:33;;;;;;;9.98;5.90;;;25.50;74.80;;;;;;5003660;28;20034;-59
2021/06/19 04:52:59;;;;;;;9.05;6.75;;;25.50;74.90;;;;;;5001289;28;20109;-58
2021/06/19 04:55:25;;;;;;;11.80;6.18;;;25.50;75.00;;;;;;5004446;28;20109;-60
2021/06/19 04:57:56;;;;;;;10.32;6.03;;;25.50;75.00;;;;;;5003352;28;20108;-59
2021/06/19 05:00:21;;;;;;;10.50;5.80;;;25.50;75.10;;;;;;5003202;28;20025;-58
2021/06/19 05:02:47;;;;;;;9.57;5.55;;;25.50;75.00;;;;;;5003063;28;20117;-58
2021/06/19 05:05:13;;;;;;;13.82;6.47;;;25.50;75.10;;;;;;5002644;28;20034;-58
2021/06/19 05:07:39;;;;;;;13.75;5.90;;;25.50;75.30;;;;;;5004639;28;20045;-58
2021/06/19 05:10:06;;;;;;;11.45;5.88;;;25.50;75.30;;;;;;5003292;28;20030;-60
2021/06/19 05:12:32;;;;;;;13.93;5.55;;;25.50;75.20;;;;;;5002920;28;20406;-59
2021/06/19 05:14:57;;;;;;;10.90;6.00;;;25.50;75.40;;;;;;4986987;28;20018;-59
2021/06/19 05:17:23;;;;;;;9.60;5.63;;;25.50;75.50;;;;;;5002965;28;20383;-59
2021/06/19 05:19:48;;;;;;;11.10;5.50;;;25.50;75.50;;;;;;5002381;28;20109;-58
2021/06/19 05:22:14;;;;;;;12.77;5.75;;;25.50;75.50;;;;;;5004455;28;20045;-59
2021/06/19 05:24:39;;;;;;;9.40;5.93;;;25.50;75.70;;;;;;5004483;28;20053;-60
2021/06/19 05:27:05;;;;;;;7.13;5.38;;;25.50;75.60;;;;;;5003289;28;20026;-59
2021/06/19 05:29:31;;;;;;;10.13;5.68;;;25.50;75.60;;;;;;5003854;28;20041;-59
2021/06/19 05:31:56;;;;;;;11.23;5.93;;;25.50;75.60;;;;;;5004140;28;20042;-61
2021/06/19 05:34:22;;;;;;;7.15;5.00;;;25.50;75.50;;;;;;5004251;28;20022;-58
2021/06/19 05:36:47;;;;;;;12.25;5.93;;;25.50;75.60;;;;;;5003113;28;20501;-59
2021/06/19 05:39:13;;;;;;;9.63;5.22;;;25.50;76.20;;;;;;5004206;28;20030;-58
2021/06/19 05:41:39;;;;;;;13.27;5.40;;;25.50;76.20;;;;;;5003971;28;20029;-58
2021/06/19 05:44:08;;;;;;;14.57;5.60;;;25.50;76.10;;;;;;5003340;28;20432;-59
2021/06/19 05:46:34;;;;;;;12.25;5.32;;;25.50;76.20;;;;;;5001633;28;20029;-59
2021/06/19 05:49:00;;;;;;;10.80;4.82;;;25.60;76.30;;;;;;5002511;28;20485;-59
2021/06/19 05:51:25;;;;;;;10.15;5.00;;;25.50;76.10;;;;;;5002933;28;20134;-61
2021/06/19 05:53:51;;;;;;;10.40;5.05;;;25.60;76.30;;;;;;5001739;28;20277;-60
2021/06/19 05:56:20;;;;;;;13.30;5.72;;;25.50;76.10;;;;;;5002130;28;20113;-60
2021/06/19 05:58:45;;;;;;;6.68;5.03;;;25.60;76.10;;;;;;5002216;28;20033;-59
2021/06/19 06:01:11;;;;;;;11.45;4.80;;;25.60;76.20;;;;;;5004176;28;20490;-58
2021/06/19 06:03:37;;;;;;;10.55;5.50;;;25.60;76.30;;;;;;5001544;28;20105;-58
2021/06/19 06:06:02;;;;;;;8.25;4.82;;;25.60;76.30;;;;;;5003820;28;20057;-61
2021/06/19 06:08:28;;;;;;;8.32;4.93;;;25.60;76.20;;;;;;5003722;28;20034;-60
2021/06/19 06:10:54;;;;;;;10.80;4.75;;;25.60;76.30;;;;;;5002700;28;20066;-60
2021/06/19 06:13:19;;;;;;;10.95;5.18;;;25.60;76.20;;;;;;5005542;28;20422;-58
2021/06/19 06:15:45;;;;;;;10.68;5.22;;;25.60;76.20;;;;;;5007225;28;20109;-59
2021/06/19 06:18:10;;;;;;;12.95;5.00;;;25.60;76.40;;;;;;5006984;28;20044;-60
2021/06/19 06:20:36;;;;;;;14.55;5.35;;;25.60;76.50;;;;;;5001847;28;20041;-60
2021/06/19 06:23:02;;;;;;;8.32;4.97;;;25.60;76.50;;;;;;5001905;28;20662;-59
2021/06/19 06:25:31;;;;;;;12.88;5.53;;;25.70;76.50;;;;;;5005076;28;20018;-59
2021/06/19 06:27:57;;;;;;;14.00;4.70;;;25.70;76.60;;;;;;4997566;28;20036;-59
2021/06/19 06:30:22;;;;;;;11.25;5.45;;;25.70;76.50;;;;;;5000475;28;20033;-59
2021/06/19 06:32:48;;;;;;;13.68;5.68;;;25.70;76.60;;;;;;5002963;28;20614;-59
2021/06/19 06:35:13;;;;;;;12.13;5.60;;;25.70;76.80;;;;;;5006477;28;20480;-59
2021/06/19 06:37:39;;;;;;;17.58;5.78;;;25.70;76.90;;;;;;5005259;28;20076;-59
2021/06/19 06:40:06;;;;;;;10.68;5.10;;;25.70;77.20;;;;;;5007243;28;20061;-60
2021/06/19 06:42:31;;;;;;;13.32;5.25;;;25.70;77.10;;;;;;4987635;28;20446;-61
2021/06/19 06:44:57;;;;;;;14.07;5.75;;;25.70;77.10;;;;;;5003081;28;20961;-59
2021/06/19 06:47:22;;;;;;;11.05;5.55;;;25.70;77.10;;;;;;5006267;28;20038;-62
2021/06/19 06:49:48;;;;;;;13.65;6.10;;;25.70;76.90;;;;;;5004455;28;20124;-61
2021/06/19 06:52:13;;;;;;;15.32;5.38;;;25.70;76.80;;;;;;5005425;28;20030;-61
2021/06/19 06:54:39;;;;;;;14.43;5.30;;;25.70;76.90;;;;;;5003033;28;20033;-60
2021/06/19 06:57:09;;;;;;;12.95;4.68;;;25.70;76.90;;;;;;5004583;28;20037;-58
2021/06/19 06:59:35;;;;;;;17.60;4.93;;;25.70;76.90;;;;;;5006755;28;20094;-59
2021/06/19 07:02:00;;;;;;;12.88;5.32;;;25.80;76.80;;;;;;5003781;28;20022;-59
2021/06/19 07:04:26;;;;;;;11.38;4.70;;;25.80;76.80;;;;;;5004426;28;20041;-60
2021/06/19 07:06:51;;;;;;;10.90;5.22;;;25.70;76.60;;;;;;5002453;28;20541;-60
2021/06/19 07:09:17;;;;;;;14.23;5.28;;;25.80;76.80;;;;;;5005549;28;20419;-59
2021/06/19 07:11:43;;;;;;;8.13;5.15;;;25.80;76.80;;;;;;5004205;28;20209;-59
2021/06/19 07:14:08;;;;;;;13.32;5.15;;;25.80;76.70;;;;;;5003539;28;20030;-59
2021/06/19 07:16:34;;;;;;;34.83;6.35;;;25.90;76.90;;;;;;5002751;28;20382;-61
2021/06/19 07:18:59;;;;;;;10.57;5.40;;;25.90;77.00;;;;;;5004457;28;20470;-59
2021/06/19 07:21:26;;;;;;;11.88;5.30;;;25.90;77.10;;;;;;5003583;28;20349;-59
2021/06/19 07:23:52;;;;;;;11.50;5.15;;;25.90;77.00;;;;;;4985939;28;20061;-61
2021/06/19 07:26:17;;;;;;;13.05;5.20;;;25.90;76.90;;;;;;5002181;28;20030;-61
2021/06/19 07:28:45;;;;;;;12.32;6.13;;;25.90;76.90;;;;;;5000367;28;20052;-62
2021/06/19 07:31:13;;;;;;;11.63;5.72;;;25.90;76.80;;;;;;5003662;28;20117;-60
2021/06/19 07:33:39;;;;;;;10.93;5.25;;;25.90;77.10;;;;;;4999582;28;20641;-61
2021/06/19 07:36:05;;;;;;;9.30;5.38;;;26.00;77.30;;;;;;4998695;28;20072;-60
2021/06/19 07:38:31;;;;;;;11.45;5.88;;;26.00;77.20;;;;;;5002448;28;20076;-59
2021/06/19 07:40:57;;;;;;;12.82;6.20;;;26.00;77.40;;;;;;5004072;28;20041;-60
2021/06/19 07:43:23;;;;;;;16.38;6.25;;;26.00;77.80;;;;;;5002554;28;20034;-60
2021/06/19 07:45:49;;;;;;;10.75;5.90;;;26.00;78.50;;;;;;5001729;28;20060;-62
2021/06/19 07:48:15;;;;;;;90.45;7.53;;;26.00;78.70;;;;;;5000731;28;20103;-62
2021/06/19 07:50:41;;;;;;;12.77;6.38;;;26.00;79.00;;;;;;5000774;28;20034;-60
2021/06/19 07:53:07;;;;;;;17.85;6.45;;;26.00;79.20;;;;;;5003701;28;20165;-61
2021/06/19 07:55:32;;;;;;;14.25;6.47;;;26.00;79.20;;;;;;5000146;28;20026;-61
2021/06/19 07:57:59;;;;;;;17.75;6.78;;;26.00;79.50;;;;;;4996585;28;20470;-60
2021/06/19 08:00:24;;;;;;;12.95;6.07;;;26.00;79.50;;;;;;5000519;28;20042;-62
2021/06/19 08:02:50;;;;;;;19.20;6.60;;;26.00;79.00;;;;;;5001188;28;20081;-61
2021/06/19 08:05:15;;;;;;;16.10;6.60;;;26.00;79.10;;;;;;4994475;28;20046;-61
2021/06/19 08:07:41;;;;;;;22.98;7.63;;;26.00;81.50;;;;;;4996070;28;20114;-61
2021/06/19 08:10:08;;;;;;;17.88;7.03;;;26.00;81.30;;;;;;5001532;28;20030;-62
2021/06/19 08:12:35;;;;;;;25.77;7.38;;;26.00;80.90;;;;;;4998285;28;20033;-60
2021/06/19 08:15:01;;;;;;;22.30;8.00;;;26.00;80.90;;;;;;4996873;28;20033;-61
2021/06/19 08:17:26;;;;;;;25.92;8.40;;;26.00;80.60;;;;;;4997079;28;20026;-61
2021/06/19 08:19:52;;;;;;;24.17;8.27;;;26.00;80.10;;;;;;4998851;28;20587;-61
2021/06/19 08:22:17;;;;;;;45.08;8.90;;;26.10;80.00;;;;;;4998615;28;20033;-61
2021/06/19 08:24:46;;;;;;;42.75;8.77;;;26.10;79.70;;;;;;4997993;28;20038;-59
2021/06/19 08:27:11;;;;;;;32.85;9.25;;;26.10;79.50;;;;;;5000028;28;20124;-61
2021/06/19 08:29:37;;;;;;;34.05;8.80;;;26.10;79.50;;;;;;4997688;28;20033;-59
2021/06/19 08:32:03;;;;;;;23.10;7.53;;;26.20;79.30;;;;;;4998482;28;20116;-60
2021/06/19 08:34:28;;;;;;;20.35;7.15;;;26.20;79.10;;;;;;4995255;28;20310;-61
2021/06/19 08:36:54;;;;;;;32.88;8.65;;;26.20;78.80;;;;;;4995227;28;20107;-58
2021/06/19 08:39:19;;;;;;;30.60;7.57;;;26.30;78.80;;;;;;4992518;28;20498;-60
2021/06/19 08:41:48;;;;;;;26.88;8.70;;;26.20;78.20;;;;;;4997341;28;20038;-60
2021/06/19 08:44:22;;;;;;;32.15;8.75;;;26.30;78.60;;;;;;4979788;28;20136;-61
2021/06/19 08:46:51;;;;;;;48.72;9.38;;;26.30;78.30;;;;;;4998314;28;20034;-62
2021/06/19 08:49:18;;;;;;;33.15;9.38;;;26.30;78.30;;;;;;4999363;28;20394;-60
2021/06/19 08:51:44;;;;;;;28.02;8.48;;;26.30;78.40;;;;;;4980901;28;20081;-60
2021/06/19 08:54:09;;;;;;;32.03;8.88;;;26.30;78.40;;;;;;4982121;28;20057;-62
2021/06/19 08:56:35;;;;;;;43.65;8.80;;;26.30;77.60;;;;;;4997374;28;20108;-63
2021/06/19 08:59:01;;;;;;;45.17;10.40;;;26.30;77.70;;;;;;5000015;28;20065;-60
2021/06/19 09:01:26;;;;;;;58.92;10.15;;;26.40;77.90;;;;;;4999379;28;20029;-62
2021/06/19 09:03:52;;;;;;;45.45;9.35;;;26.40;77.80;;;;;;4998343;28;20033;-60
2021/06/19 09:06:26;;;;;;;51.22;9.55;;;26.30;77.50;;;;;;4980536;28;20065;-62
2021/06/19 09:08:58;;;;;;;78.88;12.35;;;26.50;77.70;;;;;;4998240;28;20030;-61
2021/06/19 09:11:35;;;;;;;70.00;12.43;;;26.50;77.80;;;;;;4997247;28;20058;-63
2021/06/19 09:14:02;;;;;;;38.80;10.15;;;26.50;78.90;;;;;;4982754;28;20128;-63
2021/06/19 09:16:27;;;;;;;31.38;8.80;;;26.60;80.20;;;;;;5000397;28;20057;-61
2021/06/19 09:18:53;;;;;;;35.78;9.70;;;26.60;80.00;;;;;;4997823;28;20049;-61
2021/06/19 09:21:19;;;;;;;76.90;11.77;;;26.60;79.80;;;;;;4999966;28;20030;-62
2021/06/19 09:23:45;;;;;;;37.78;9.93;;;26.70;79.70;;;;;;4982297;28;20397;-63
2021/06/19 09:26:16;;;;;;;62.33;11.82;;;26.70;79.80;;;;;;4998148;28;20018;-62
2021/06/19 09:29:11;;;;;;;32.08;9.80;;;26.80;79.30;;;;;;4998663;28;20036;-61
2021/06/19 09:31:38;;;;;;;49.00;11.57;;;26.80;78.30;;;;;;4997998;28;20107;-62
2021/06/19 09:34:20;;;;;;;91.13;11.32;;;26.90;77.90;;;;;;4996657;28;20026;-62
2021/06/19 09:36:57;;;;;;;36.53;8.82;;;26.90;76.90;;;;;;4997972;28;20044;-62
2021/06/19 09:39:24;;;;;;;34.15;8.57;;;27.00;76.10;;;;;;4982840;28;20386;-61
2021/06/19 09:42:00;;;;;;;41.40;9.45;;;27.00;75.00;;;;;;5001146;28;20061;-63
2021/06/19 09:44:50;;;;;;;52.15;9.40;;;26.90;74.10;;;;;;4996513;28;20490;-62
2021/06/19 09:47:18;;;;;;;78.88;12.43;;;27.00;73.90;;;;;;4996392;28;21212;-63
2021/06/19 09:49:47;;;;;;;54.67;9.75;;;27.00;74.00;;;;;;5002265;28;20717;-61
2021/06/19 09:52:13;;;;;;;59.38;10.57;;;27.00;73.00;;;;;;4986569;28;20037;-62
2021/06/19 09:54:45;;;;;;;77.75;11.07;;;27.00;73.20;;;;;;5033917;28;20034;-62
2021/06/19 09:57:14;;;;;;;50.10;11.90;;;27.10;73.20;;;;;;4998913;28;20041;-61
2021/06/19 09:59:40;;;;;;;34.92;9.35;;;27.10;73.40;;;;;;5017822;28;20080;-62
2021/06/19 10:02:17;;;;;;;36.40;9.18;;;27.10;73.40;;;;;;5002497;28;20026;-62
2021/06/19 10:04:43;;;;;;;44.40;9.93;;;27.20;73.50;;;;;;5017460;28;20389;-62
2021/06/19 10:07:08;;;;;;;35.20;9.45;;;27.20;73.50;;;;;;4985240;28;20034;-62
2021/06/19 10:09:34;;;;;;;40.97;10.75;;;27.20;73.80;;;;;;4985956;28;20045;-64
2021/06/19 10:11:59;;;;;;;41.55;9.95;;;27.30;74.30;;;;;;5001733;28;20045;-59
2021/06/19 10:14:25;;;;;;;46.63;10.63;;;27.30;74.50;;;;;;4981883;28;20061;-60
2021/06/19 10:16:53;;;;;;;48.58;9.02;;;27.30;74.50;;;;;;4984688;28;20049;-62
2021/06/19 10:19:20;;;;;;;53.58;10.63;;;27.40;74.60;;;;;;4986151;28;20034;-62
2021/06/19 10:21:47;;;;;;;37.17;10.70;;;27.40;75.00;;;;;;5001845;28;20117;-61
2021/06/19 10:24:13;;;;;;;41.63;11.40;;;27.50;75.10;;;;;;5000085;28;20034;-62
2021/06/19 10:26:39;;;;;;;33.00;10.50;;;27.50;75.20;;;;;;4999654;28;20034;-60
2021/06/19 10:29:05;;;;;;;100.90;14.93;;;27.60;75.10;;;;;;4985376;28;20032;-62
2021/06/19 10:31:46;;;;;;;51.58;11.07;;;27.60;75.20;;;;;;5000489;28;20106;-59
2021/06/19 10:34:26;;;;;;;34.50;10.10;;;27.70;75.20;;;;;;5016354;28;20025;-59
2021/06/19 10:36:53;;;;;;;36.97;10.80;;;27.70;75.30;;;;;;4999300;28;20072;-60
2021/06/19 10:39:40;;;;;;;26.40;9.90;;;27.80;75.30;;;;;;5033879;28;20021;-63
2021/06/19 10:42:25;;;;;;;24.95;9.02;;;27.80;75.20;;;;;;5000817;28;20485;-61
2021/06/19 10:44:52;;;;;;;38.25;9.13;;;27.90;75.00;;;;;;4999647;28;20070;-61
2021/06/19 10:47:18;;;;;;;44.92;10.40;;;28.00;74.80;;;;;;5000431;28;20660;-61
2021/06/19 10:49:44;;;;;;;40.55;9.65;;;28.00;74.60;;;;;;4999932;28;20541;-61
2021/06/19 10:52:27;;;;;;;31.50;9.32;;;28.10;74.10;;;;;;4999383;28;20030;-61
2021/06/19 10:55:08;;;;;;;31.92;8.75;;;28.10;74.00;;;;;;5000658;28;20021;-63
2021/06/19 10:58:04;;;;;;;88.13;14.23;;;28.20;73.70;;;;;;5002626;28;20034;-60
2021/06/19 11:00:30;;;;;;;;;;;28.30;73.70;;;;;;4985113;28;20046;-60
2021/06/19 11:02:58;;;;;;;44.92;9.85;;;28.30;73.30;;;;;;4998630;28;19963;-60
2021/06/19 11:05:42;;;;;;;56.03;11.35;;;28.40;73.00;;;;;;5000199;28;20033;-62
2021/06/19 11:08:08;;;;;;;24.02;8.07;;;28.50;72.80;;;;;;5002386;28;21458;-62
2021/06/19 11:10:43;;;;;;;29.17;8.10;;;28.50;71.90;;;;;;5001932;28;20072;-61
2021/06/19 11:13:27;;;;;;;21.23;7.80;;;28.60;71.50;;;;;;5002043;28;20054;-59
2021/06/19 11:16:00;;;;;;;26.38;7.53;;;28.70;71.00;;;;;;5001239;28;20502;-60
2021/06/19 11:18:48;;;;;;;27.75;7.57;;;28.70;70.40;;;;;;5001301;28;20049;-62
2021/06/19 11:21:18;;;;;;;52.53;9.13;;;28.80;69.50;;;;;;5001374;28;20046;-61
2021/06/19 11:24:02;;;;;;;66.35;9.90;;;28.90;69.00;;;;;;5000052;28;20125;-59
2021/06/19 11:27:00;;;;;;;33.78;9.40;;;29.00;68.70;;;;;;4999192;28;20524;-63
2021/06/19 11:29:40;;;;;;;51.95;9.65;;;29.10;68.60;;;;;;4998369;28;20050;-59
2021/06/19 11:32:26;;;;;;;35.47;7.82;;;29.20;67.70;;;;;;4983607;28;20080;-62
2021/06/19 11:34:55;;;;;;;21.27;7.40;;;29.20;67.50;;;;;;5014908;28;20036;-60
2021/06/19 11:37:20;;;;;;;25.77;6.78;;;29.30;67.20;;;;;;4984270;28;20109;-61
2021/06/19 11:39:47;;;;;;;35.55;7.85;;;29.40;66.60;;;;;;5003085;28;20679;-61
2021/06/19 11:42:12;;;;;;;23.67;7.50;;;29.40;66.10;;;;;;5001274;28;20033;-62
2021/06/19 11:44:42;;;;;;;32.40;7.97;;;29.40;66.10;;;;;;5000627;28;20018;-62
2021/06/19 11:47:08;;;;;;;17.20;6.47;;;29.50;66.00;;;;;;4986330;28;20033;-59
2021/06/19 11:49:36;;;;;;;28.92;7.50;;;29.50;65.50;;;;;;4981237;28;20037;-60
2021/06/19 11:52:02;;;;;;;25.75;6.60;;;29.60;65.50;;;;;;5000869;28;20112;-62
2021/06/19 11:54:28;;;;;;;33.85;8.38;;;29.70;65.50;;;;;;4999999;28;20625;-62
2021/06/19 11:56:54;;;;;;;44.28;8.88;;;29.70;65.50;;;;;;4999728;28;20026;-59
2021/06/19 11:59:20;;;;;;;46.00;9.43;;;29.80;65.50;;;;;;4984084;28;20053;-62
2021/06/19 12:01:47;;;;;;;44.17;9.68;;;29.80;65.60;;;;;;4985324;28;20620;-60
2021/06/19 12:04:27;;;;;;;26.30;7.45;;;29.80;65.40;;;;;;5002228;28;20068;-59
2021/06/19 12:06:57;;;;;;;27.48;7.68;;;29.90;65.30;;;;;;4987194;28;20069;-59
2021/06/19 12:09:35;;;;;;;33.10;7.88;;;30.00;64.80;;;;;;5001703;28;20041;-62
2021/06/19 12:12:06;;;;;;;51.88;9.18;;;30.10;64.90;;;;;;5000842;28;20042;-62
2021/06/19 12:14:33;;;;;;;31.77;8.32;;;30.10;65.00;;;;;;5001085;28;20036;-60
2021/06/19 12:17:05;;;;;;;41.88;8.48;;;30.20;64.90;;;;;;5002086;28;20029;-60
2021/06/19 12:19:32;;;;;;;51.03;9.05;;;30.20;64.70;;;;;;4983685;28;20037;-61
2021/06/19 12:21:59;;;;;;;36.60;7.93;;;30.30;64.80;;;;;;4999714;28;20042;-61
2021/06/19 12:24:33;;;;;;;30.08;7.32;;;30.30;64.10;;;;;;4999919;28;20426;-59
2021/06/19 12:27:10;;;;;;;21.08;7.40;;;30.40;64.10;;;;;;5001527;28;20022;-59
2021/06/19 12:29:40;;;;;;;58.47;9.85;;;30.40;64.00;;;;;;5001962;28;20143;-59
2021/06/19 12:32:25;;;;;;;38.38;9.32;;;30.50;63.90;;;;;;5001080;28;20516;-63
2021/06/19 12:34:51;;;;;;;56.45;10.10;;;30.60;63.80;;;;;;5000213;28;20560;-62
2021/06/19 12:37:20;;;;;;;63.72;9.57;;;30.60;63.60;;;;;;5000367;28;20025;-61
2021/06/19 12:39:45;;;;;;;37.50;9.50;;;30.70;63.90;;;;;;5002032;28;20030;-59